Time;durP1;ratioP1;P1;durP2;ratioP2;P2;SDS_P1;SDS_P2;PMS_P1;PMS_P2;Temp;Humidity;BMP_temperature;BMP_pressure;BME280_temperature;BME280_humidity;BME280_pressure;Samples;Min_cycle;Max_cycle;Signal;HPM_P1;HPM_P2
2023/01/24 00:00:26;;;;;;;;;;;;;;;16.31;59.23;99362.09;2067173;28;20116;-51
2023/01/24 00:01:26;;;;;;;7.13;5.65;;;;;;;16.35;59.33;99359.91;2061761;28;20981;-47
2023/01/24 00:02:28;;;;;;;;;;;;;;;16.28;59.26;99357.91;2062275;28;20100;-51
2023/01/24 00:03:28;;;;;;;5.00;4.18;;;;;;;16.35;59.12;99357.22;2063268;28;19932;-51
2023/01/24 00:04:30;;;;;;;;;;;;;;;16.24;59.36;99363.78;2061482;28;20046;-52
2023/01/24 00:05:33;;;;;;;6.95;5.20;;;;;;;16.29;59.36;99361.44;2063922;28;20606;-51
2023/01/24 00:06:35;;;;;;;8.10;5.13;;;;;;;16.34;59.13;99367.09;2064222;28;20050;-50
2023/01/24 00:07:35;;;;;;;6.22;4.95;;;;;;;16.37;59.08;99363.25;2060880;28;20103;-53
2023/01/24 00:08:37;;;;;;;;;;;;;;;16.27;59.26;99361.63;2063877;28;20589;-46
2023/01/24 00:09:38;;;;;;;7.00;5.75;;;;;;;16.31;59.16;99360.25;2065307;28;19931;-53
2023/01/24 00:10:39;;;;;;;;;;;;;;;16.23;59.29;99362.94;2061461;28;20104;-47
2023/01/24 00:11:41;;;;;;;;;;;;;;;16.16;59.38;99367.31;2062099;28;19929;-50
2023/01/24 00:12:43;;;;;;;6.63;5.38;;;;;;;16.24;59.41;99370.00;2061422;28;19929;-52
2023/01/24 00:13:43;;;;;;;6.07;4.75;;;;;;;16.28;59.17;99360.59;2062422;28;20103;-50
2023/01/24 00:14:45;;;;;;;;;;;;;;;16.19;59.29;99366.97;2065308;28;20062;-47
2023/01/24 00:15:46;;;;;;;7.78;5.15;;;;;;;16.23;59.25;99368.28;2061882;28;20341;-50
2023/01/24 00:16:47;;;;;;;;;;;;;;;16.14;59.40;99369.31;2061257;28;20057;-53
2023/01/24 00:17:48;;;;;;;6.40;5.35;;;;;;;16.19;59.25;99371.50;2063214;28;19932;-49
2023/01/24 00:18:49;;;;;;;;;;;;;;;16.14;59.38;99373.84;2061796;28;20058;-50
2023/01/24 00:19:50;;;;;;;6.07;5.25;;;;;;;16.18;59.36;99373.31;2060796;28;20626;-50
2023/01/24 00:20:51;;;;;;;;;;;;;;;16.11;59.52;99372.34;2062240;28;20053;-50
2023/01/24 00:21:53;;;;;;;15.20;5.95;;;;;;;16.15;59.40;99373.66;2062253;28;19929;-51
2023/01/24 00:22:54;;;;;;;7.50;5.90;;;;;;;16.21;59.04;99372.16;2062436;28;20053;-52
2023/01/24 00:23:55;;;;;;;;;;;;;;;16.11;59.40;99375.03;2062224;28;20108;-49
2023/01/24 00:24:56;;;;;;;7.70;5.95;;;;;;;16.12;59.41;99374.00;2065053;28;20105;-51
2023/01/24 00:25:57;;;;;;;;;;;;;;;16.06;59.49;99374.69;2064472;28;20053;-52
2023/01/24 00:26:59;;;;;;;6.95;5.38;;;;;;;16.10;59.38;99373.34;2061439;28;19925;-47
2023/01/24 00:28:01;;;;;;;7.72;5.57;;;;;;;16.15;59.20;99376.34;2057879;28;20049;-53
2023/01/24 00:29:02;;;;;;;7.88;4.78;;;;;;;16.19;59.13;99374.19;2066047;28;20053;-49
2023/01/24 00:30:05;;;;;;;;;;;;;;;16.09;59.26;99377.03;2059914;28;20503;-48
2023/01/24 00:31:06;;;;;;;7.07;5.43;;;;;;;16.11;59.24;99377.69;2062105;28;20743;-49
2023/01/24 00:32:07;;;;;;;;;;;;;;;16.01;59.49;99383.22;2062499;28;20107;-50
2023/01/24 00:33:08;;;;;;;7.78;5.22;;;;;;;16.06;59.34;99378.19;2062212;28;20014;-49
2023/01/24 00:34:09;;;;;;;;;;;;;;;15.99;59.45;99377.22;2061034;28;20507;-49
2023/01/24 00:35:10;;;;;;;6.40;5.20;;;;;;;16.04;59.38;99376.69;2059118;28;20342;-49
2023/01/24 00:36:12;;;;;;;;;;;;;;;15.97;59.48;99386.41;2061230;28;20042;-48
2023/01/24 00:37:12;;;;;;;6.15;4.90;;;;;;;16.04;59.41;99387.38;2058812;28;19924;-47
2023/01/24 00:38:14;;;;;;;;;;;;;;;15.94;59.56;99382.22;2061257;28;20108;-49
2023/01/24 00:39:14;;;;;;;6.57;4.68;;;;;;;15.98;59.35;99388.06;2059064;28;21299;-51
2023/01/24 00:40:16;;;;;;;;;;;;;;;15.92;59.57;99392.25;2067921;28;20057;-49
2023/01/24 00:41:17;;;;;;;6.68;4.43;;;;;;;15.98;59.48;99398.78;2062134;28;19948;-48
2023/01/24 00:42:19;;;;;;;;;;;;;;;15.93;59.57;99401.09;2062639;28;20053;-48
2023/01/24 00:43:20;;;;;;;7.88;5.70;;;;;;;15.95;59.61;99396.44;2061660;28;20442;-55
2023/01/24 00:44:21;;;;;;;;;;;;;;;15.89;59.67;99399.78;2064563;28;20096;-47
2023/01/24 00:45:22;;;;;;;6.70;4.57;;;;;;;15.95;59.60;99404.47;2069770;28;20406;-47
2023/01/24 00:46:23;;;;;;;;;;;;;;;15.88;59.59;99401.63;2071039;28;20048;-49
2023/01/24 00:47:24;;;;;;;6.95;5.07;;;;;;;15.91;59.55;99403.09;2069594;28;19975;-49
2023/01/24 00:48:26;;;;;;;;;;;;;;;15.84;59.67;99410.97;2070811;28;20107;-50
2023/01/24 00:49:26;;;;;;;6.85;5.25;;;;;;;15.88;59.60;99409.66;2068311;28;19988;-49
2023/01/24 00:50:28;;;;;;;;;;;;;;;15.80;59.65;99409.66;2069444;28;20057;-48
2023/01/24 00:51:29;;;;;;;5.43;4.43;;;;;;;15.85;59.66;99408.16;2068068;28;19925;-49
2023/01/24 00:52:30;;;;;;;;;;;;;;;15.77;59.76;99416.16;2069221;28;20057;-48
2023/01/24 00:53:31;;;;;;;7.25;4.65;;;;;;;15.82;59.76;99410.31;2070091;28;19925;-51
2023/01/24 00:54:32;;;;;;;;;;;;;;;15.76;59.78;99416.31;2067469;28;20805;-49
2023/01/24 00:55:33;;;;;;;8.18;5.68;;;;;;;15.80;59.73;99409.66;2068424;28;19924;-48
2023/01/24 00:56:34;;;;;;;;;;;;;;;15.74;59.78;99411.16;2071396;28;21381;-49
2023/01/24 00:57:36;;;;;;;5.35;4.13;;;;;;;15.80;59.73;99415.00;2069168;28;19929;-48
2023/01/24 00:58:38;;;;;;;7.03;5.28;;;;;;;15.84;59.49;99403.78;2068384;28;20069;-49
2023/01/24 00:59:39;;;;;;;5.53;4.72;;;;;;;15.85;59.53;99416.19;2069405;28;20069;-50
2023/01/24 01:00:40;;;;;;;;;;;;;;;15.74;59.69;99408.47;2070509;28;20054;-49
2023/01/24 01:01:41;;;;;;;6.20;4.57;;;;;;;15.78;59.61;99409.81;2070395;28;20035;-49
2023/01/24 01:02:42;;;;;;;;;;;;;;;15.70;59.64;99412.47;2070072;28;20053;-49
2023/01/24 01:03:44;;;;;;;8.02;5.38;;;;;;;15.74;59.77;99416.50;2070894;28;19967;-48
2023/01/24 01:04:45;;;;;;;5.95;5.00;;;;;;;15.76;59.61;99417.16;2069124;28;20045;-49
2023/01/24 01:05:46;;;;;;;;;;;;;;;15.70;59.84;99417.00;2069645;28;20053;-48
2023/01/24 01:06:48;;;;;;;5.82;5.05;;;;;;;15.69;59.80;99416.16;2069891;28;19930;-47
2023/01/24 01:07:49;;;;;;;7.68;4.45;;;;;;;15.74;59.75;99424.53;2068635;28;20095;-49
2023/01/24 01:08:50;;;;;;;;;;;;;;;15.64;59.79;99421.97;2071271;28;20115;-50
2023/01/24 01:09:51;;;;;;;5.60;4.22;;;;;;;15.65;59.78;99425.47;2068330;28;20321;-50
2023/01/24 01:10:52;;;;;;;;;;;;;;;15.58;59.92;99425.31;2067517;28;20053;-48
2023/01/24 01:11:53;;;;;;;5.65;4.53;;;;;;;15.61;59.88;99434.84;2069910;28;20515;-50
2023/01/24 01:12:57;;;;;;;;;;;;;;;15.57;60.02;99433.47;2067703;28;20069;-50
2023/01/24 01:13:58;;;;;;;7.30;4.43;;;;;;;15.63;59.77;99430.16;2069235;28;19975;-49
2023/01/24 01:14:59;;;;;;;5.13;4.25;;;;;;;15.66;59.65;99427.16;2070146;28;20111;-51
2023/01/24 01:16:01;;;;;;;;;;;;;;;15.60;59.80;99428.66;2068249;28;20109;-50
2023/01/24 01:17:02;;;;;;;;;;;;;;;15.54;59.94;99423.94;2067097;28;19968;-47
2023/01/24 01:18:03;;;;;;;;;;;;;;;15.47;60.11;99427.47;2067984;28;19929;-48
2023/01/24 01:19:06;;;;;;;8.07;4.77;;;;;;;15.54;59.93;99433.81;2069516;28;19933;-50
2023/01/24 01:20:08;;;;;;;6.05;5.25;;;;;;;15.60;59.96;99431.34;2061825;28;20104;-49
2023/01/24 01:21:12;;;;;;;6.57;4.55;;;;;;;15.64;59.78;99429.16;2065515;28;20761;-49
2023/01/24 01:22:13;;;;;;;6.10;4.55;;;;;;;15.64;59.73;99431.81;2069338;28;20083;-49
2023/01/24 01:23:14;;;;;;;;;;;;;;;15.55;59.81;99430.97;2065913;28;20054;-48
2023/01/24 01:24:15;;;;;;;7.30;4.95;;;;;;;15.55;60.03;99436.34;2060250;28;19926;-48
2023/01/24 01:25:17;;;;;;;;;;;;;;;15.47;60.11;99430.13;2065236;28;21593;-48
2023/01/24 01:26:19;;;;;;;7.45;4.82;;;;;;;15.53;59.97;99427.63;2059553;28;20013;-51
2023/01/24 01:27:21;;;;;;;5.20;4.40;;;;;;;15.54;59.78;99423.09;2070118;28;20045;-48
2023/01/24 01:28:23;;;;;;;6.03;5.13;;;;;;;15.58;59.71;99424.47;2065373;28;20050;-49
2023/01/24 01:29:24;;;;;;;5.32;4.50;;;;;;;15.56;59.75;99431.81;2065287;28;20073;-50
2023/01/24 01:30:25;;;;;;;6.85;5.13;;;;;;;15.60;59.73;99422.44;2065417;28;20145;-52
2023/01/24 01:31:26;;;;;;;;;;;;;;;15.47;59.90;99428.28;2065587;28;20391;-50
2023/01/24 01:32:27;;;;;;;5.70;4.40;;;;;;;15.47;59.89;99430.97;2066601;28;20171;-50
2023/01/24 01:33:29;;;;;;;;;;;;;;;15.39;60.20;99436.28;2064438;28;20108;-51
2023/01/24 01:34:29;;;;;;;7.05;5.25;;;;;;;15.44;60.04;99435.81;2067092;28;20003;-50
2023/01/24 01:35:31;;;;;;;;;;;;;;;15.37;60.11;99433.75;2067825;28;20111;-51
2023/01/24 01:36:31;;;;;;;6.18;4.78;;;;;;;15.40;60.07;99435.28;2061765;28;19930;-49
2023/01/24 01:37:33;;;;;;;;;;;;;;;15.31;60.17;99434.41;2066646;28;20512;-54
2023/01/24 01:38:33;;;;;;;5.93;4.63;;;;;;;15.39;60.18;99436.28;2063811;28;20044;-49
2023/01/24 01:39:35;;;;;;;;;;;;;;;15.29;60.42;99438.25;2065860;28;20185;-51
2023/01/24 01:40:35;;;;;;;6.50;4.45;;;;;;;15.36;60.24;99431.28;2065396;28;19951;-52
2023/01/24 01:41:37;;;;;;;;;;;;;;;15.28;60.26;99433.91;2064538;28;20061;-49
2023/01/24 01:42:49;;;;;;;7.18;4.78;;;;;;;15.31;60.31;99430.91;2068173;28;19930;-54
2023/01/24 01:45:47;;;;;;;7.00;4.57;;;;;;;15.33;60.18;99431.59;2061031;28;20133;-53
2023/01/24 01:46:51;;;;;;;6.43;4.75;;;;;;;15.35;60.08;99443.81;2061773;28;20160;-53
2023/01/24 01:47:53;;;;;;;5.28;4.35;;;;;;;15.37;59.96;99438.28;2060849;28;20053;-53
2023/01/24 01:48:57;;;;;;;5.25;4.18;;;;;;;15.37;59.91;99433.75;2062389;28;20058;-51
2023/01/24 01:50:04;;;;;;;5.53;4.28;;;;;;;15.37;59.83;99433.75;2058609;28;20115;-54
2023/01/24 01:51:11;;;;;;;4.90;4.25;;;;;;;15.36;59.90;99434.78;2063798;28;21720;-50
2023/01/24 01:52:14;;;;;;;7.68;4.05;;;;;;;15.37;59.95;99443.63;2063861;28;20045;-48
2023/01/24 01:53:16;;;;;;;6.28;4.05;;;;;;;15.34;60.08;99435.94;2063339;28;20107;-53
2023/01/24 01:54:21;;;;;;;5.25;4.20;;;;;;;15.35;59.84;99435.78;2061463;28;20077;-48
2023/01/24 01:55:29;;;;;;;6.38;4.75;;;;;;;15.32;59.91;99441.47;2061993;28;21165;-52
2023/01/24 01:56:34;;;;;;;6.85;4.88;;;;;;;15.32;60.00;99446.81;2063498;28;20107;-51
2023/01/24 01:57:37;;;;;;;5.05;4.40;;;;;;;15.32;60.16;99444.13;2066611;28;20050;-49
2023/01/24 01:58:39;;;;;;;6.22;4.47;;;;;;;15.31;59.97;99449.63;2066238;28;20050;-52
2023/01/24 01:59:46;;;;;;;5.57;4.32;;;;;;;15.31;59.98;99445.13;2064575;28;20049;-52
2023/01/24 02:00:50;;;;;;;6.65;4.68;;;;;;;15.28;59.98;99444.59;2062675;28;20050;-53
2023/01/24 02:01:53;;;;;;;5.80;4.68;;;;;;;15.29;59.96;99446.28;2065542;28;20053;-49
2023/01/24 02:03:37;;;;;;;4.85;4.30;;;;;;;15.26;59.90;99449.28;2059217;28;20057;-53
2023/01/24 02:04:27;;;;;;;6.10;4.45;;;;;;;15.21;59.97;99457.78;2063889;28;20629;-50
2023/01/24 02:05:28;;;;;;;3.97;3.42;;;;;;;15.22;60.17;99456.78;2062805;28;20053;-53
2023/01/24 02:06:42;;;;;;;;;;;;;;;15.11;60.39;99465.91;2063626;28;20590;-54
2023/01/24 02:07:50;;;;;;;6.30;5.00;;;;;;;15.13;60.30;99463.94;2065526;28;19971;-49
2023/01/24 02:08:52;;;;;;;5.78;4.32;;;;;;;15.15;60.16;99450.41;2064678;28;20046;-47
2023/01/24 02:09:55;;;;;;;5.15;4.18;;;;;;;15.19;60.16;99463.28;2066926;28;20099;-48
2023/01/24 02:12:20;;;;;;;5.10;3.50;;;;;;;15.18;60.10;99460.75;2068192;28;21578;-49
2023/01/24 02:13:21;;;;;;;6.30;4.75;;;;;;;15.16;60.11;99458.25;2066540;28;20107;-48
2023/01/24 02:16:04;;;;;;;6.40;4.35;;;;;;;15.07;60.43;99463.72;2061515;28;19925;-52
2023/01/24 02:17:06;;;;;;;6.07;4.57;;;;;;;15.06;60.32;99457.53;2063114;28;20793;-50
2023/01/24 02:18:09;;;;;;;5.35;4.15;;;;;;;15.08;60.29;99460.91;2064276;28;20112;-54
2023/01/24 02:19:21;;;;;;;5.35;4.05;;;;;;;15.13;60.16;99455.91;2069751;28;20057;-47
2023/01/24 02:20:31;;;;;;;5.75;4.60;;;;;;;15.10;60.15;99463.41;2063649;28;20062;-54
2023/01/24 02:21:33;;;;;;;6.43;4.43;;;;;;;15.09;60.19;99456.38;2063506;28;20512;-54
2023/01/24 02:22:43;;;;;;;5.80;3.97;;;;;;;15.08;60.19;99462.75;2060140;28;20131;-53
2023/01/24 02:23:55;;;;;;;5.68;4.45;;;;;;;15.05;60.11;99455.06;2062725;28;20056;-49
2023/01/24 02:25:04;;;;;;;6.05;4.05;;;;;;;15.06;60.25;99459.38;2062704;28;20050;-52
2023/01/24 02:26:09;;;;;;;6.80;4.88;;;;;;;15.06;60.22;99459.38;2064135;28;20648;-53
2023/01/24 02:27:09;;;;;;;4.70;3.75;;;;;;;15.06;60.27;99459.38;2062436;28;20049;-49
2023/01/24 02:28:11;;;;;;;;;;;;;;;14.93;60.42;99454.47;2061396;28;20131;-53
2023/01/24 02:29:15;;;;;;;6.93;4.03;;;;;;;14.96;60.51;99460.34;2059218;28;20338;-51
2023/01/24 02:30:17;;;;;;;5.05;4.22;;;;;;;14.98;60.37;99468.19;2063990;28;20041;-47
2023/01/24 02:31:18;;;;;;;5.43;3.90;;;;;;;14.99;60.29;99467.22;2063635;28;20115;-51
2023/01/24 02:32:20;;;;;;;;;;;;;;;14.87;60.67;99461.28;2063086;28;20726;-54
2023/01/24 02:33:21;;;;;;;5.68;4.47;;;;;;;14.90;60.54;99460.97;2065201;28;19921;-53
2023/01/24 02:34:23;;;;;;;;;;;;;;;14.82;60.71;99454.75;2064641;28;20057;-51
2023/01/24 02:35:26;;;;;;;6.45;4.07;;;;;;;14.92;60.53;99463.50;2065829;28;19964;-50
2023/01/24 02:36:32;;;;;;;6.32;4.18;;;;;;;14.95;60.41;99460.50;2061873;28;20053;-51
2023/01/24 02:37:36;;;;;;;5.28;3.88;;;;;;;14.96;60.28;99463.03;2062062;28;20057;-50
2023/01/24 02:38:39;;;;;;;5.00;3.70;;;;;;;14.97;60.38;99462.03;2062816;28;20060;-53
2023/01/24 02:39:47;;;;;;;6.00;3.85;;;;;;;14.95;60.30;99460.50;2062014;28;20840;-50
2023/01/24 02:40:53;;;;;;;6.18;4.35;;;;;;;14.97;60.28;99459.34;2066373;28;20136;-49
2023/01/24 02:41:59;;;;;;;4.80;3.60;;;;;;;14.94;60.14;99457.00;2071407;28;20127;-54
2023/01/24 02:43:05;;;;;;;4.82;3.65;;;;;;;14.91;60.40;99461.84;2067644;28;20042;-51
2023/01/24 02:44:11;;;;;;;4.20;3.75;;;;;;;14.90;60.53;99457.47;2061805;28;20073;-54
2023/01/24 02:45:17;;;;;;;6.32;3.90;;;;;;;14.89;60.40;99456.63;2064292;28;20135;-52
2023/01/24 02:46:18;;;;;;;4.00;3.15;;;;;;;14.89;60.28;99453.97;2062481;28;20060;-53
2023/01/24 02:47:19;;;;;;;;;;;;;;;14.75;60.65;99465.25;2066015;28;20057;-49
2023/01/24 02:48:20;;;;;;;4.43;3.70;;;;;;;14.78;60.60;99459.59;2062783;28;19959;-55
2023/01/24 02:49:21;;;;;;;;;;;;;;;14.69;60.92;99464.03;2070015;28;20065;-50
2023/01/24 02:50:26;;;;;;;5.82;3.63;;;;;;;14.76;60.67;99464.25;2067868;28;19928;-50
2023/01/24 02:54:20;;;;;;;4.20;3.42;;;;;;;14.79;60.75;99461.25;2049942;28;20057;-49
2023/01/24 02:55:20;;;;;;;5.82;4.15;;;;;;;14.81;60.65;99463.78;2068789;28;20053;-52
2023/01/24 02:59:01;;;;;;;4.32;3.53;;;;;;;14.70;60.59;99457.69;2069463;28;20041;-52
2023/01/24 03:00:03;;;;;;;4.53;3.65;;;;;;;14.76;60.65;99458.91;2069933;28;20590;-52
2023/01/24 03:01:05;;;;;;;5.85;4.03;;;;;;;14.79;60.35;99461.25;2068068;28;20087;-50
2023/01/24 03:02:05;;;;;;;5.70;4.10;;;;;;;14.79;60.43;99463.91;2068357;28;20654;-50
2023/01/24 03:03:07;;;;;;;;;;;;;;;14.65;60.80;99472.50;2068887;28;20104;-52
2023/01/24 03:04:10;;;;;;;4.30;3.53;;;;;;;14.65;60.80;99468.00;2068297;28;19965;-48
2023/01/24 03:05:12;;;;;;;5.47;3.92;;;;;;;14.70;60.80;99468.38;2068400;28;20053;-54
2023/01/24 03:06:14;;;;;;;5.13;4.32;;;;;;;14.74;60.65;99463.59;2070192;28;20626;-47
2023/01/24 03:07:16;;;;;;;4.53;3.90;;;;;;;14.76;60.47;99472.25;2071214;28;20054;-48
2023/01/24 03:08:16;;;;;;;5.47;3.83;;;;;;;14.75;60.53;99467.91;2068132;28;20108;-47
2023/01/24 03:09:33;;;;;;;;;;;;;;;14.64;60.77;99466.34;2070013;28;20042;-49
2023/01/24 03:10:34;;;;;;;5.95;4.07;;;;;;;14.67;60.83;99467.88;2068589;28;20296;-49
2023/01/24 03:11:36;;;;;;;6.63;4.50;;;;;;;14.68;60.53;99477.53;2068655;28;20102;-50
2023/01/24 03:35:10;;;;;;;4.75;4.28;;;;;;;14.49;60.90;99482.06;2067298;28;20046;-51
2023/01/24 03:36:13;;;;;;;4.53;3.65;;;;;;;14.52;60.81;99486.31;2067934;28;20050;-50
2023/01/24 03:37:14;;;;;;;4.53;4.05;;;;;;;14.51;60.89;99468.56;2069700;28;20050;-51
2023/01/24 03:40:51;;;;;;;5.20;3.17;;;;;;;14.49;60.55;99474.06;2064182;28;20822;-49
2023/01/24 03:41:53;;;;;;;3.20;2.90;;;;;;;14.50;60.82;99473.06;2067738;28;20073;-51
2023/01/24 03:42:53;;;;;;;4.00;3.47;;;;;;;14.52;60.73;99470.28;2067621;28;20111;-50
2023/01/24 03:43:55;;;;;;;;;;;;;;;14.39;60.95;99478.66;2069518;28;20107;-51
2023/01/24 03:44:57;;;;;;;4.22;3.63;;;;;;;14.40;60.91;99477.69;2066364;28;19925;-52
2023/01/24 03:45:58;;;;;;;5.57;4.22;;;;;;;14.44;60.87;99470.19;2062171;28;21084;-50
2023/01/24 03:46:59;;;;;;;4.32;3.33;;;;;;;14.45;60.88;99471.84;2057980;28;21004;-51
2023/01/24 03:48:01;;;;;;;;;;;;;;;14.35;61.05;99471.97;2063043;28;20058;-48
2023/01/24 03:49:02;;;;;;;3.58;3.10;;;;;;;14.41;61.00;99473.19;2062215;28;20350;-49
2023/01/24 03:52:42;;;;;;;4.55;3.40;;;;;;;14.37;61.09;99469.97;2061470;28;20136;-51
2023/01/24 03:53:43;;;;;;;4.90;3.20;;;;;;;14.41;61.01;99474.00;2060757;28;20099;-50
2023/01/24 03:54:44;;;;;;;;;;;;;;;14.34;61.16;99480.94;2061986;28;20053;-50
2023/01/24 03:55:45;;;;;;;5.38;3.35;;;;;;;14.36;61.05;99476.31;2061421;28;19921;-51
2023/01/24 03:56:47;;;;;;;;;;;;;;;14.29;61.10;99475.22;2063796;28;20061;-49
2023/01/24 03:57:48;;;;;;;5.05;2.97;;;;;;;14.34;60.99;99474.78;2063396;28;20449;-50
2023/01/24 03:58:53;;;;;;;;;;;;;;;14.25;61.35;99476.56;2064936;28;20076;-49
2023/01/24 03:59:54;;;;;;;4.28;3.83;;;;;;;14.30;61.08;99476.94;2065373;28;19960;-52
2023/01/24 04:00:57;;;;;;;;;;;;;;;14.20;61.28;99476.16;2060447;28;20424;-50
2023/01/24 04:01:58;;;;;;;4.13;3.00;;;;;;;14.28;61.11;99477.06;2064445;28;19987;-49
2023/01/24 04:02:59;;;;;;;;;;;;;;;14.22;61.48;99482.19;2063917;28;20482;-49
2023/01/24 04:04:00;;;;;;;4.10;2.95;;;;;;;14.28;61.12;99478.91;2059823;28;20463;-49
2023/01/24 04:05:13;;;;;;;;;;;;;;;14.17;61.43;99477.31;2059738;28;23049;-48
2023/01/24 04:06:14;;;;;;;3.17;2.58;;;;;;;14.24;61.36;99477.56;2058258;28;19929;-51
2023/01/24 04:07:15;;;;;;;;;;;;;;;14.16;61.35;99480.16;2061052;28;20053;-49
2023/01/24 04:08:18;;;;;;;3.92;3.22;;;;;;;14.24;61.15;99478.38;2062343;28;19992;-50
2023/01/24 04:09:18;;;;;;;4.15;3.28;;;;;;;14.27;61.07;99478.06;2061103;28;20431;-49
2023/01/24 04:10:20;;;;;;;;;;;;;;;14.16;61.32;99481.00;2062617;28;20080;-48
2023/01/24 04:11:20;;;;;;;4.95;3.95;;;;;;;14.22;61.37;99476.88;2059127;28;19990;-50
2023/01/24 04:12:22;;;;;;;;;;;;;;;14.15;61.29;99483.78;2062369;28;20096;-48
2023/01/24 04:13:23;;;;;;;3.65;2.67;;;;;;;14.19;61.22;99482.50;2060965;28;20038;-51
2023/01/24 04:14:24;;;;;;;;;;;;;;;14.12;61.46;99484.09;2063460;28;20127;-48
2023/01/24 04:15:27;;;;;;;4.30;2.90;;;;;;;14.18;61.34;99483.47;2063595;28;19974;-52
2023/01/24 04:16:30;;;;;;;4.15;3.10;;;;;;;14.21;61.10;99478.69;2064326;28;20120;-50
2023/01/24 04:17:30;;;;;;;3.70;2.97;;;;;;;14.23;61.19;99486.53;2063104;28;20655;-47
2023/01/24 04:18:32;;;;;;;;;;;;;;;14.14;61.23;99479.47;2063221;28;20054;-53
2023/01/24 04:19:33;;;;;;;3.85;2.72;;;;;;;14.16;61.32;99477.50;2062920;28;20407;-51
2023/01/24 04:20:35;;;;;;;;;;;;;;;14.08;61.67;99481.75;2065189;28;20050;-47
2023/01/24 04:21:36;;;;;;;4.55;2.97;;;;;;;14.13;61.25;99488.47;2063414;28;19933;-50
2023/01/24 04:22:37;;;;;;;;;;;;;;;14.06;61.76;99480.22;2062225;28;20457;-53
2023/01/24 04:23:39;;;;;;;4.05;2.60;;;;;;;14.13;61.39;99488.47;2063924;28;19925;-51
2023/01/24 04:24:40;;;;;;;3.70;2.88;;;;;;;14.17;61.19;99479.16;2061582;28;20152;-51
2023/01/24 04:25:42;;;;;;;4.30;3.45;;;;;;;14.20;61.18;99486.84;2062960;28;20049;-53
2023/01/24 04:26:43;;;;;;;4.05;3.65;;;;;;;14.22;61.11;99493.69;2063404;28;20058;-51
2023/01/24 04:27:45;;;;;;;;;;;;;;;14.08;61.45;99487.09;2066098;28;20618;-50
2023/01/24 04:28:45;;;;;;;5.30;3.58;;;;;;;14.15;61.28;99483.78;2061444;28;20467;-51
2023/01/24 04:29:47;;;;;;;;;;;;;;;14.06;61.52;99482.88;2063181;28;20050;-50
2023/01/24 04:30:48;;;;;;;3.72;3.00;;;;;;;14.11;61.40;99493.13;2062159;28;19928;-52
2023/01/24 04:31:51;;;;;;;4.60;3.67;;;;;;;14.15;61.12;99483.78;2065871;28;20053;-47
2023/01/24 04:32:52;;;;;;;3.58;3.28;;;;;;;14.17;61.13;99492.50;2059566;28;20038;-53
2023/01/24 04:33:53;;;;;;;4.03;3.58;;;;;;;14.17;61.10;99492.50;2062225;28;20151;-47
2023/01/24 04:34:55;;;;;;;;;;;;;;;14.05;61.26;99484.72;2062064;28;20049;-54
2023/01/24 04:35:58;;;;;;;3.88;3.10;;;;;;;14.11;61.36;99485.94;2063085;28;20414;-50
2023/01/24 04:37:00;;;;;;;4.07;3.17;;;;;;;14.23;61.05;99489.19;2061690;28;20061;-50
2023/01/24 04:38:03;;;;;;;4.20;3.28;;;;;;;14.28;60.67;99481.56;2062336;28;20693;-49
2023/01/24 04:39:03;;;;;;;3.85;2.55;;;;;;;14.34;60.53;99486.28;2063439;28;20163;-50
2023/01/24 04:40:06;;;;;;;;;;;;;;;14.28;60.71;99478.91;2063320;28;20954;-51
2023/01/24 04:41:12;;;;;;;4.25;3.05;;;;;;;14.42;60.42;99481.00;2064125;28;20382;-49
2023/01/24 04:42:13;;;;;;;3.03;2.47;;;;;;;14.52;60.29;99479.13;2065311;28;20127;-52
2023/01/24 04:43:14;;;;;;;3.83;2.45;;;;;;;14.61;60.06;99472.00;2063969;28;20045;-54
2023/01/24 04:44:15;;;;;;;;;;;;;;;14.61;60.24;99479.19;2065644;28;20433;-50
2023/01/24 04:45:16;;;;;;;4.47;3.08;;;;;;;14.63;60.41;99482.53;2062320;28;19940;-50
2023/01/24 04:46:18;;;;;;;;;;;;;;;14.62;60.46;99468.31;2066599;28;20503;-49
2023/01/24 04:47:20;;;;;;;3.80;2.85;;;;;;;14.69;60.33;99473.91;2063596;28;19979;-50
2023/01/24 04:48:21;;;;;;;3.28;2.97;;;;;;;14.76;60.20;99474.91;2060667;28;20583;-53
2023/01/24 04:49:22;;;;;;;3.55;2.97;;;;;;;14.82;60.08;99471.63;2068500;28;20597;-48
2023/01/24 04:50:24;;;;;;;;;;;;;;;14.81;60.16;99464.59;2069890;28;20111;-50
2023/01/24 04:51:24;;;;;;;2.92;2.67;;;;;;;14.88;60.29;99473.66;2067799;28;19982;-49
2023/01/24 04:52:26;;;;;;;;;;;;;;;14.86;60.36;99472.97;2073095;28;20458;-50
2023/01/24 04:53:28;;;;;;;3.47;2.72;;;;;;;14.92;60.39;99466.16;2069483;28;20472;-53
2023/01/24 04:54:30;;;;;;;3.13;2.78;;;;;;;14.99;60.25;99472.56;2070932;28;20128;-52
2023/01/24 04:55:31;;;;;;;3.42;2.97;;;;;;;15.05;60.03;99468.41;2070466;28;20072;-52
2023/01/24 04:56:32;;;;;;;;;;;;;;;15.04;60.44;99474.72;2070285;28;20050;-47
2023/01/24 04:57:33;;;;;;;4.10;3.17;;;;;;;15.06;60.19;99472.75;2069343;28;19929;-48
2023/01/24 04:58:35;;;;;;;;;;;;;;;15.08;60.24;99471.59;2070200;28;20050;-49
2023/01/24 04:59:35;;;;;;;4.30;2.38;;;;;;;15.15;60.06;99461.91;2068956;28;19975;-51
2023/01/24 05:00:37;;;;;;;;;;;;;;;15.16;60.04;99468.94;2069199;28;20100;-50
2023/01/24 05:01:38;;;;;;;3.70;2.83;;;;;;;15.22;59.93;99462.13;2069893;28;19925;-53
2023/01/24 05:02:41;;;;;;;3.28;2.42;;;;;;;15.28;59.98;99466.00;2071786;28;20543;-53
2023/01/24 05:03:42;;;;;;;3.45;2.53;;;;;;;15.35;59.64;99467.00;2061726;28;20049;-52
2023/01/24 05:04:43;;;;;;;;;;;;;;;15.32;59.85;99465.50;2069904;28;20054;-48
2023/01/24 05:05:48;;;;;;;3.60;2.78;;;;;;;15.36;59.89;99466.84;2070086;28;20386;-48
2023/01/24 05:06:50;;;;;;;3.88;2.33;;;;;;;15.41;59.68;99464.53;2069330;28;20146;-50
2023/01/24 05:07:51;;;;;;;3.70;2.75;;;;;;;15.45;59.55;99467.72;2071224;28;20434;-49
2023/01/24 05:08:52;;;;;;;;;;;;;;;15.43;59.64;99469.69;2071143;28;20062;-47
2023/01/24 05:09:53;;;;;;;3.25;2.95;;;;;;;15.46;59.67;99463.19;2068509;28;19969;-49
2023/01/24 05:10:54;;;;;;;;;;;;;;;15.43;59.77;99464.34;2072250;28;20098;-53
2023/01/24 05:11:55;;;;;;;3.58;2.35;;;;;;;15.49;59.70;99474.41;2069159;28;19922;-49
2023/01/24 05:12:56;;;;;;;;;;;;;;;15.48;59.81;99471.91;2072090;28;20053;-51
2023/01/24 05:13:57;;;;;;;3.63;3.03;;;;;;;15.50;59.71;99476.09;2071616;28;19974;-48
2023/01/24 05:14:58;;;;;;;;;;;;;;;15.47;59.86;99479.09;2069272;28;20107;-47
2023/01/24 05:15:59;;;;;;;3.00;2.40;;;;;;;15.54;59.82;99479.25;2070897;28;19978;-52
2023/01/24 05:17:00;;;;;;;;;;;;;;;15.52;59.85;99478.59;2071478;28;20115;-50
2023/01/24 05:18:03;;;;;;;2.97;2.47;;;;;;;15.58;59.81;99481.47;2071192;28;19978;-48
2023/01/24 05:19:04;;;;;;;3.33;2.83;;;;;;;15.64;59.67;99490.66;2069812;28;20057;-49
2023/01/24 05:20:06;;;;;;;4.25;2.88;;;;;;;15.72;59.56;99488.03;2065728;28;20084;-48
2023/01/24 05:21:09;;;;;;;3.80;2.55;;;;;;;15.76;59.37;99492.03;2068710;28;20049;-48
2023/01/24 05:22:13;;;;;;;2.53;2.15;;;;;;;15.83;59.27;99493.06;2070519;28;20045;-49
2023/01/24 05:23:14;;;;;;;2.55;2.15;;;;;;;15.84;59.36;99494.72;2064335;28;20076;-52
2023/01/24 05:24:18;;;;;;;;;;;;;;;15.79;59.49;99499.72;2060615;28;20041;-49
2023/01/24 05:25:18;;;;;;;4.15;2.75;;;;;;;15.81;59.44;99492.41;2060117;28;20906;-50
2023/01/24 05:26:21;;;;;;;;;;;;;;;15.78;59.71;99500.75;2061574;28;20050;-47
2023/01/24 05:27:22;;;;;;;3.55;3.00;;;;;;;15.88;59.53;99497.06;2063130;28;19922;-49
2023/01/24 05:28:23;;;;;;;;;;;;;;;15.83;59.50;99498.44;2061236;28;20704;-48
2023/01/24 05:29:24;;;;;;;3.25;2.67;;;;;;;15.90;59.46;99497.75;2063392;28;20358;-50
2023/01/24 05:30:25;;;;;;;;;;;;;;;15.86;59.56;99498.09;2066344;28;20046;-49
2023/01/24 05:31:26;;;;;;;3.55;2.67;;;;;;;15.95;59.55;99496.25;2061820;28;19999;-51
2023/01/24 05:32:28;;;;;;;;;;;;;;;15.94;59.54;99494.59;2060682;28;20115;-53
2023/01/24 05:33:30;;;;;;;3.90;2.50;;;;;;;16.02;59.40;99496.47;2065670;28;20429;-48
2023/01/24 05:34:32;;;;;;;3.42;2.45;;;;;;;16.03;59.45;99493.59;2066230;28;20077;-51
2023/01/24 05:35:32;;;;;;;4.03;2.78;;;;;;;16.11;59.15;99492.78;2059907;28;20053;-49
2023/01/24 05:36:34;;;;;;;;;;;;;;;16.05;59.28;99488.09;2064201;28;20091;-53
2023/01/24 05:37:36;;;;;;;3.97;3.05;;;;;;;16.13;59.28;99489.91;2064175;28;19929;-49
2023/01/24 05:38:37;;;;;;;3.17;2.35;;;;;;;16.20;58.98;99493.59;2061381;28;20049;-49
2023/01/24 05:39:38;;;;;;;3.28;2.17;;;;;;;16.23;58.91;99483.41;2060630;28;20112;-51